Time;durP1;ratioP1;P1;durP2;ratioP2;P2;SDS_P1;SDS_P2;PMS_P1;PMS_P2;Temp;Humidity;BMP_temperature;BMP_pressure;BME280_temperature;BME280_humidity;BME280_pressure;Samples;Min_cycle;Max_cycle;Signal;HPM_P1;HPM_P2
2022/09/25 00:09:26;;;;;;;0.37;0.37;;;;;;;13.80;65.35;100368.16;18431284;32;20099;-56
2022/09/25 00:29:51;;;;;;;1.20;1.10;;;;;;;13.94;64.98;100375.81;18430904;32;20105;-57
2022/09/25 00:39:55;;;;;;;0.40;0.40;;;;;;;13.89;65.35;100372.37;18430531;32;20120;-57
2022/09/25 00:50:01;;;;;;;0.80;0.40;;;;;;;13.81;64.92;100366.37;18430298;32;20123;-57
2022/09/25 01:00:07;;;;;;;1.23;1.12;;;;;;;13.59;65.32;100353.62;18429955;32;20096;-57
2022/09/25 01:10:13;;;;;;;0.35;0.35;;;;;;;13.47;65.88;100338.94;18429920;32;20624;-57
2022/09/25 01:20:24;;;;;;;0.50;0.50;;;;;;;13.65;65.85;100348.25;18429396;32;20116;-57
2022/09/25 01:30:30;;;;;;;0.50;0.50;;;;;;;13.72;65.35;100339.41;18428832;32;20089;-57
2022/09/25 01:40:36;;;;;;;1.00;0.80;;;;;;;13.64;65.72;100357.00;18428119;32;20111;-57
2022/09/25 01:50:43;;;;;;;0.40;0.40;;;;;;;13.84;64.85;100353.19;18428393;32;20111;-57
2022/09/25 02:00:50;;;;;;;0.40;0.40;;;;;;;13.73;65.42;100341.13;18427707;32;20123;-57
2022/09/25 02:10:57;;;;;;;0.77;0.77;;;;;;;13.65;65.54;100345.63;18426990;32;20093;-57
2022/09/25 02:21:07;;;;;;;0.20;0.20;;;;;;;13.70;65.37;100332.44;18425396;32;20097;-57
2022/09/25 02:31:13;;;;;;;5.22;0.62;;;;;;;13.49;66.04;100334.53;18426970;32;20111;-57
2022/09/25 02:41:20;;;;;;;0.40;0.40;;;;;;;13.74;65.06;100336.75;18426358;32;20409;-57
2022/09/25 02:51:29;;;;;;;0.50;0.50;;;;;;;13.77;64.71;100341.09;18424981;32;20354;-57
2022/09/25 03:01:34;;;;;;;0.47;0.47;;;;;;;13.64;64.80;100325.53;18424407;32;20093;-57
2022/09/25 03:11:40;;;;;;;0.55;0.55;;;;;;;13.41;65.51;100323.25;18423822;32;20099;-57
2022/09/25 03:21:43;;;;;;;0.50;0.50;;;;;;;13.27;64.75;100320.81;18423932;32;20447;-57
2022/09/25 03:31:48;;;;;;;0.40;0.40;;;;;;;13.11;64.63;100307.97;18428864;32;20145;-57
2022/09/25 03:41:51;;;;;;;0.40;0.40;;;;;;;12.79;64.62;100297.91;18431907;32;20105;-57
2022/09/25 03:51:55;;;;;;;0.50;0.50;;;;;;;12.58;65.04;100313.88;18433041;32;20377;-57
2022/09/25 04:01:58;;;;;;;0.60;0.60;;;;;;;12.40;65.76;100316.69;18431535;32;20179;-57
2022/09/25 04:12:04;;;;;;;0.52;0.52;;;;;;;12.30;66.18;100352.59;18432146;32;20101;-57
2022/09/25 04:22:07;;;;;;;0.35;0.35;;;;;;;12.38;65.62;100336.81;18430978;32;20120;-57
2022/09/25 04:42:32;;;;;;;0.40;0.40;;;;;;;12.46;66.40;100327.97;18430465;32;20362;-57
2022/09/25 04:52:37;;;;;;;0.40;0.40;;;;;;;12.38;66.46;100328.94;18430186;32;20650;-57
2022/09/25 05:02:40;;;;;;;0.90;0.55;;;;;;;12.52;66.99;100324.44;18430384;32;20140;-57
2022/09/25 05:12:46;;;;;;;0.70;0.70;;;;;;;12.55;67.83;100331.38;18429629;32;20159;-57
2022/09/25 05:22:49;;;;;;;0.40;0.40;;;;;;;12.85;68.23;100324.91;18429282;32;20191;-57
2022/09/25 05:32:57;;;;;;;0.32;0.32;;;;;;;13.12;67.87;100335.03;18428973;32;20105;-57
2022/09/25 05:43:01;;;;;;;0.40;0.40;;;;;;;13.41;67.67;100334.63;18428265;32;20140;-57
2022/09/25 05:53:06;;;;;;;0.62;0.62;;;;;;;13.83;67.08;100328.75;18414787;32;20156;-57
2022/09/25 06:03:09;;;;;;;0.28;0.28;;;;;;;14.05;67.19;100330.97;18466969;32;20125;-57
2022/09/25 06:13:14;;;;;;;0.47;0.47;;;;;;;14.32;66.40;100338.37;18491880;32;20148;-57
2022/09/25 06:23:18;;;;;;;0.65;0.65;;;;;;;14.47;66.04;100345.97;18490953;32;20133;-57
2022/09/25 06:33:22;;;;;;;0.62;0.62;;;;;;;14.61;65.79;100347.47;18490429;32;20446;-57
2022/09/25 06:43:26;;;;;;;0.30;0.30;;;;;;;14.89;65.34;100360.06;18489185;32;20110;-57
2022/09/25 06:53:30;;;;;;;0.40;0.40;;;;;;;15.10;64.53;100357.00;18489508;32;20370;-57
2022/09/25 07:03:46;;;;;;;0.30;0.30;;;;;;;15.39;63.54;100363.38;18491032;32;20362;-57
2022/09/25 07:13:53;;;;;;;0.40;0.40;;;;;;;15.45;62.92;100350.97;18482763;32;20100;-57
2022/09/25 07:23:57;;;;;;;0.30;0.30;;;;;;;15.83;62.13;100349.16;18498165;32;20108;-57
2022/09/25 07:34:07;;;;;;;0.45;0.45;;;;;;;15.91;61.88;100346.41;18498246;32;20088;-57
2022/09/25 07:44:11;;;;;;;0.57;0.57;;;;;;;16.58;60.22;100345.50;18497960;32;20110;-56
2022/09/25 07:54:36;;;;;;;0.40;0.40;;;;;;;16.56;60.18;100335.91;18500801;32;20108;-57
2022/09/25 08:04:39;;;;;;;0.20;0.20;;;;;;;16.81;59.49;100324.66;18492021;32;20110;-57
2022/09/25 08:14:44;;;;;;;0.45;0.45;;;;;;;17.29;58.53;100310.91;18498371;32;20373;-57
2022/09/25 08:24:48;;;;;;;0.47;0.47;;;;;;;17.49;57.81;100319.97;18499312;32;20097;-57
2022/09/25 08:34:54;;;;;;;0.30;0.30;;;;;;;17.66;57.67;100322.03;18498268;32;20116;-56
2022/09/25 08:56:13;;;;;;;1.85;0.80;;;;;;;17.44;57.07;100321.87;18497861;32;20106;-57
2022/09/25 09:05:56;;;;;;;0.43;0.43;;;;;;;18.26;55.53;100313.03;18497103;32;20138;-57
2022/09/25 09:16:04;;;;;;;0.15;0.15;;;;;;;18.77;53.57;100324.38;18497437;32;20377;-57
2022/09/25 09:26:15;;;;;;;0.20;0.20;;;;;;;19.14;52.07;100322.13;18497289;32;20115;-56
2022/09/25 09:36:24;;;;;;;0.20;0.20;;;;;;;18.93;52.62;100321.16;18496648;32;20154;-56
2022/09/25 09:46:33;;;;;;;0.40;0.40;;;;;;;19.18;52.38;100317.56;18497357;32;20080;-57
2022/09/25 09:56:40;;;;;;;0.20;0.20;;;;;;;18.60;54.02;100314.44;18496102;32;20175;-56
2022/09/25 10:06:46;;;;;;;0.30;0.30;;;;;;;18.09;55.56;100314.47;18494934;32;20426;-57
2022/09/25 10:16:52;;;;;;;0.30;0.30;;;;;;;19.02;52.99;100312.03;18495096;32;20088;-57
2022/09/25 10:26:55;;;;;;;0.20;0.20;;;;;;;19.12;52.45;100305.44;18495643;32;20099;-56
2022/09/25 10:37:19;;;;;;;0.20;0.20;;;;;;;19.16;52.72;100312.38;18495278;32;20096;-57
2022/09/25 10:57:49;;;;;;;0.30;0.30;;;;;;;19.51;52.79;100274.81;18235513;32;20125;-57
2022/09/25 11:07:54;;;;;;;0.20;0.20;;;;;;;19.42;55.73;100265.44;18234987;32;20177;-56
2022/09/25 11:17:58;;;;;;;0.30;0.30;;;;;;;19.13;56.65;100270.13;18234379;32;20438;-56
2022/09/25 11:28:05;;;;;;;0.20;0.20;;;;;;;18.96;58.26;100274.28;18281654;32;20152;-57
2022/09/25 11:38:17;;;;;;;0.30;0.30;;;;;;;18.80;60.60;100274.00;18499798;32;20111;-56
2022/09/25 11:48:24;;;;;;;0.20;0.20;;;;;;;18.84;59.88;100269.47;18296387;32;20171;-56
2022/09/25 11:58:44;;;;;;;0.30;0.30;;;;;;;18.76;61.07;100264.50;18314038;32;20112;-56
2022/09/25 12:09:01;;;;;;;1.55;0.82;;;;;;;18.76;62.48;100268.91;18499916;32;20122;-57
2022/09/25 12:19:16;;;;;;;0.73;0.73;;;;;;;18.65;63.06;100259.59;18499961;32;20092;-56
2022/09/25 12:29:36;;;;;;;0.20;0.20;;;;;;;18.57;63.89;100257.25;18499618;32;20101;-56
2022/09/25 12:39:43;;;;;;;0.20;0.20;;;;;;;18.17;63.92;100261.37;18498143;32;20121;-56
2022/09/25 12:49:50;;;;;;;0.30;0.30;;;;;;;17.87;65.28;100265.03;18499001;32;20093;-56
2022/09/25 12:59:56;;;;;;;0.30;0.30;;;;;;;17.69;66.37;100260.38;18496706;32;20116;-56
2022/09/25 13:10:00;;;;;;;0.20;0.20;;;;;;;17.66;66.90;100249.94;18497267;32;20116;-56
2022/09/25 13:20:45;;;;;;;0.20;0.20;;;;;;;17.62;67.71;100242.09;18496881;32;20107;-56
2022/09/25 13:31:00;;;;;;;0.30;0.30;;;;;;;17.70;68.06;100247.13;18496514;32;20111;-57
2022/09/25 13:41:13;;;;;;;0.30;0.30;;;;;;;17.59;68.98;100242.22;18496538;32;20111;-56
2022/09/25 13:51:27;;;;;;;0.50;0.50;;;;;;;17.60;68.60;100243.09;18496060;32;20111;-56
2022/09/25 14:01:36;;;;;;;0.65;0.65;;;;;;;17.34;70.35;100221.06;18488756;32;20097;-57
2022/09/25 14:11:42;;;;;;;0.32;0.32;;;;;;;17.56;68.82;100215.06;18418178;32;20377;-57
2022/09/25 14:21:47;;;;;;;0.30;0.30;;;;;;;17.64;69.00;100207.75;18416775;32;20094;-56
2022/09/25 14:32:02;;;;;;;0.22;0.22;;;;;;;17.58;69.41;100215.84;18426551;32;20097;-57
2022/09/25 14:42:50;;;;;;;0.20;0.20;;;;;;;17.56;69.83;100215.06;18481363;32;20523;-56
2022/09/25 14:52:56;;;;;;;0.60;0.60;;;;;;;17.53;70.52;100216.03;18511352;32;20099;-57
2022/09/25 15:03:02;;;;;;;0.30;0.30;;;;;;;17.52;70.29;100205.53;18518993;32;20185;-56
2022/09/25 15:13:08;;;;;;;0.25;0.25;;;;;;;17.51;70.69;100199.38;18509783;32;20259;-57
2022/09/25 15:23:17;;;;;;;0.40;0.40;;;;;;;17.62;70.11;100194.59;18500692;32;20182;-56
2022/09/25 15:50:28;;;;;;;0.30;0.30;;;;;;;18.43;67.91;100193.47;18701699;31;74039;-58
2022/09/25 16:11:05;;;;;;;0.30;0.30;;;;;;;17.68;70.04;100182.09;18665050;31;20087;-58
2022/09/25 16:21:18;;;;;;;0.68;0.50;;;;;;;17.58;70.55;100173.63;18660520;31;20109;-58
2022/09/25 16:31:24;;;;;;;0.80;0.73;;;;;;;17.57;70.53;100172.78;18637140;31;20475;-58
2022/09/25 16:41:27;;;;;;;0.22;0.22;;;;;;;17.54;70.75;100185.22;18638779;31;20461;-58
2022/09/25 16:51:32;;;;;;;0.32;0.32;;;;;;;17.45;71.08;100175.84;18592831;31;20104;-58
2022/09/25 17:01:37;;;;;;;0.30;0.30;;;;;;;17.45;71.01;100162.63;18567644;31;20480;-58
2022/09/25 17:11:44;;;;;;;0.60;0.60;;;;;;;17.25;71.75;100140.44;18614929;31;20099;-58
2022/09/25 17:21:50;;;;;;;0.30;0.30;;;;;;;17.32;71.29;100139.31;18592937;31;20118;-58
2022/09/25 17:31:54;;;;;;;0.45;0.45;;;;;;;17.38;71.02;100147.97;18601334;31;20104;-58
2022/09/25 17:41:58;;;;;;;1.17;0.93;;;;;;;17.37;70.87;100135.69;18625320;31;20458;-58
2022/09/25 17:52:02;;;;;;;0.30;0.30;;;;;;;17.39;70.62;100133.84;18625724;31;20427;-58
2022/09/25 18:02:10;;;;;;;2.62;1.15;;;;;;;17.36;70.68;100123.38;18624167;31;20207;-58
2022/09/25 18:12:15;;;;;;;1.87;0.85;;;;;;;17.28;70.79;100123.66;18603263;31;20111;-58
2022/09/25 18:22:20;;;;;;;0.80;0.80;;;;;;;17.27;70.65;100124.56;18611340;31;20100;-58
2022/09/25 18:32:25;;;;;;;2.20;0.80;;;;;;;17.24;70.72;100124.69;18588278;31;20115;-58
2022/09/25 18:42:28;;;;;;;0.40;0.40;;;;;;;17.19;70.88;100127.50;18583974;31;20612;-58
2022/09/25 18:52:32;;;;;;;1.33;1.05;;;;;;;17.17;70.96;100124.06;18623531;31;20111;-58
2022/09/25 19:02:40;;;;;;;0.30;0.30;;;;;;;17.02;71.57;100115.72;18578309;31;20140;-58
2022/09/25 19:12:45;;;;;;;0.55;0.37;;;;;;;17.09;71.38;100124.28;18557214;31;20092;-58
2022/09/25 19:22:48;;;;;;;0.73;0.73;;;;;;;17.11;71.13;100111.06;18562668;31;20117;-58
2022/09/25 19:32:53;;;;;;;1.10;0.50;;;;;;;17.05;71.21;100099.78;18568489;31;20106;-58
2022/09/25 19:42:56;;;;;;;5.68;0.60;;;;;;;16.96;71.57;100094.81;18555973;31;20108;-58
2022/09/25 19:53:01;;;;;;;0.52;0.47;;;;;;;16.97;71.40;100078.06;18555074;31;20122;-58
2022/09/25 20:03:04;;;;;;;2.12;0.75;;;;;;;17.03;70.92;100084.97;18564669;31;20413;-59
2022/09/25 20:13:09;;;;;;;0.30;0.30;;;;;;;16.95;71.21;100093.06;18572192;31;20371;-58
2022/09/25 20:23:12;;;;;;;0.50;0.50;;;;;;;16.92;71.38;100093.19;18617292;31;20146;-58
2022/09/25 20:33:17;;;;;;;0.55;0.40;;;;;;;16.93;71.53;100089.62;18627669;31;20092;-58
2022/09/25 20:43:20;;;;;;;0.30;0.30;;;;;;;16.99;71.35;100083.28;18627636;31;20450;-58
2022/09/25 20:53:25;;;;;;;0.65;0.65;;;;;;;16.95;71.35;100074.63;18627001;31;20108;-58
2022/09/25 21:03:30;;;;;;;0.30;0.30;;;;;;;16.59;73.06;100064.37;18621661;31;20124;-58
2022/09/25 21:13:35;;;;;;;0.37;0.37;;;;;;;16.90;71.56;100058.97;18626765;31;20134;-58
2022/09/25 21:23:39;;;;;;;0.40;0.32;;;;;;;16.92;71.29;100061.56;18627653;31;20087;-58
2022/09/25 21:33:44;;;;;;;1.98;0.52;;;;;;;16.90;71.43;100060.75;18625836;31;20510;-59
2022/09/25 21:43:48;;;;;;;0.30;0.30;;;;;;;16.93;71.41;100058.00;18625656;31;20088;-58
2022/09/25 21:53:52;;;;;;;0.47;0.40;;;;;;;16.90;71.53;100031.75;18625200;31;20100;-58
2022/09/25 22:03:57;;;;;;;0.28;0.28;;;;;;;16.85;71.68;100010.81;18625215;31;20140;-58
2022/09/25 22:14:02;;;;;;;0.62;0.62;;;;;;;16.81;71.74;100010.97;18626016;31;20450;-58
2022/09/25 22:24:06;;;;;;;0.57;0.57;;;;;;;16.83;71.70;100002.09;18624760;31;20084;-59
2022/09/25 22:34:16;;;;;;;0.22;0.22;;;;;;;16.87;71.71;99995.81;18624191;31;20092;-58
2022/09/25 22:44:19;;;;;;;0.40;0.40;;;;;;;16.95;71.57;99981.50;18624220;31;20120;-59
2022/09/25 22:54:24;;;;;;;0.40;0.40;;;;;;;16.93;71.33;99978.91;18623463;31;20095;-58
2022/09/25 23:04:27;;;;;;;0.32;0.32;;;;;;;16.96;71.10;99972.69;18623386;31;20096;-58
2022/09/25 23:14:32;;;;;;;0.20;0.20;;;;;;;16.85;71.49;99960.75;18622757;31;20103;-58
2022/09/25 23:24:35;;;;;;;0.30;0.30;;;;;;;16.85;71.37;99949.31;18622068;31;20425;-58
2022/09/25 23:34:39;;;;;;;0.40;0.40;;;;;;;16.95;70.85;99936.69;18621467;31;20382;-58
2022/09/25 23:44:42;;;;;;;0.28;0.28;;;;;;;16.71;71.17;99937.50;18620819;31;20103;-58
2022/09/25 23:54:47;;;;;;;0.37;0.37;;;;;;;16.74;70.85;99929.47;18622988;31;20092;-58
